Time;durP1;ratioP1;P1;durP2;ratioP2;P2;SDS_P1;SDS_P2;PMS_P1;PMS_P2;Temp;Humidity;BMP_temperature;BMP_pressure;BME280_temperature;BME280_humidity;BME280_pressure;Samples;Min_cycle;Max_cycle;Signal;HPM_P1;HPM_P2
2020/12/12 00:02:38;;;;;;;28.73;19.20;;;5.40;99.90;;;;;;6200099;28;20483;-61
2020/12/12 00:05:41;;;;;;;34.33;21.27;;;5.40;99.90;;;;;;6200149;28;20468;-60
2020/12/12 00:08:43;;;;;;;38.50;21.20;;;5.30;99.90;;;;;;6193021;28;20473;-63
2020/12/12 00:11:46;;;;;;;40.87;23.40;;;5.30;99.90;;;;;;6199919;28;20488;-64
2020/12/12 00:14:49;;;;;;;41.03;22.10;;;5.30;99.90;;;;;;6200271;28;20871;-60
2020/12/12 00:17:51;;;;;;;41.70;23.43;;;5.20;99.90;;;;;;6191075;28;20962;-65
2020/12/12 00:20:54;;;;;;;44.70;23.83;;;5.20;99.90;;;;;;6199200;28;20924;-65
2020/12/12 00:23:57;;;;;;;41.30;23.63;;;5.10;99.90;;;;;;6204517;28;20558;-63
2020/12/12 00:26:59;;;;;;;46.77;24.30;;;5.00;99.90;;;;;;6204191;28;20484;-63
2020/12/12 00:30:03;;;;;;;41.07;23.07;;;5.00;99.90;;;;;;6203908;28;20952;-63
2020/12/12 00:33:05;;;;;;;49.03;24.67;;;4.90;99.90;;;;;;6204099;28;20937;-64
2020/12/12 00:36:07;;;;;;;49.20;25.93;;;4.90;99.90;;;;;;6204347;28;20452;-63
2020/12/12 00:39:10;;;;;;;46.90;23.43;;;5.00;99.90;;;;;;6184564;28;20540;-62
2020/12/12 00:42:12;;;;;;;55.27;26.00;;;5.00;99.90;;;;;;6191628;28;20940;-62
2020/12/12 00:45:15;;;;;;;45.03;22.97;;;5.00;99.90;;;;;;6204162;28;20457;-62
2020/12/12 00:48:18;;;;;;;50.73;25.97;;;5.10;99.90;;;;;;6204044;28;20750;-63
2020/12/12 00:51:20;;;;;;;48.87;25.97;;;5.10;99.90;;;;;;6203829;28;20465;-62
2020/12/12 00:54:22;;;;;;;44.33;23.43;;;5.10;99.90;;;;;;6204233;28;20465;-62
2020/12/12 00:57:24;;;;;;;43.00;24.30;;;5.10;99.90;;;;;;6203597;28;20792;-63
2020/12/12 01:00:32;;;;;;;41.17;25.40;;;5.20;99.90;;;;;;6203786;28;20480;-63
2020/12/12 01:03:35;;;;;;;46.33;24.57;;;5.20;99.90;;;;;;6204007;28;20469;-64
2020/12/12 01:06:37;;;;;;;43.00;23.47;;;5.20;99.90;;;;;;6197315;28;20473;-62
2020/12/12 01:09:39;;;;;;;52.87;26.60;;;5.20;99.90;;;;;;6179404;28;20477;-62
2020/12/12 01:12:42;;;;;;;45.40;24.77;;;5.20;99.90;;;;;;6212405;28;20479;-63
2020/12/12 01:15:45;;;;;;;41.03;24.30;;;5.20;99.90;;;;;;6227643;28;20469;-62
2020/12/12 01:18:47;;;;;;;47.70;24.40;;;5.10;99.90;;;;;;6220677;28;20548;-64
2020/12/12 01:21:52;;;;;;;53.60;26.83;;;5.10;99.90;;;;;;6203565;28;20536;-63
2020/12/12 01:24:55;;;;;;;50.97;25.70;;;5.10;99.90;;;;;;6203418;28;20511;-64
2020/12/12 01:27:57;;;;;;;58.00;26.07;;;5.10;99.90;;;;;;6179435;28;20513;-63
2020/12/12 01:31:01;;;;;;;51.67;26.30;;;5.10;99.90;;;;;;6178670;28;20491;-63
2020/12/12 01:34:03;;;;;;;47.23;25.50;;;5.10;99.90;;;;;;6178492;28;20479;-65
2020/12/12 01:37:06;;;;;;;53.97;27.13;;;5.10;99.90;;;;;;6179072;28;20481;-62
2020/12/12 01:40:08;;;;;;;50.37;25.57;;;5.10;99.90;;;;;;6178461;28;20812;-63
2020/12/12 01:43:10;;;;;;;51.23;25.07;;;5.10;99.90;;;;;;6169650;28;20977;-64
2020/12/12 01:46:14;;;;;;;50.40;23.80;;;5.00;99.90;;;;;;6178668;28;20477;-63
2020/12/12 01:49:16;;;;;;;48.47;23.83;;;4.90;99.90;;;;;;6194356;28;20598;-63
2020/12/12 01:52:18;;;;;;;48.53;25.77;;;4.90;99.90;;;;;;6202632;28;20568;-63
2020/12/12 01:55:21;;;;;;;47.07;25.40;;;4.90;99.90;;;;;;6202575;28;20473;-64
2020/12/12 01:58:23;;;;;;;55.20;26.07;;;4.90;99.90;;;;;;6202562;28;20469;-65
2020/12/12 02:01:28;;;;;;;49.50;25.43;;;4.90;99.90;;;;;;6202306;28;20469;-64
2020/12/12 02:04:32;;;;;;;52.57;25.07;;;4.80;99.90;;;;;;6202154;28;20962;-64
2020/12/12 02:07:35;;;;;;;47.30;24.37;;;4.80;99.90;;;;;;6187977;28;20489;-63
2020/12/12 02:10:39;;;;;;;47.20;24.53;;;4.70;99.90;;;;;;6177933;28;20487;-63
2020/12/12 02:13:46;;;;;;;52.30;26.07;;;4.70;99.90;;;;;;6177463;28;20473;-62
2020/12/12 02:16:56;;;;;;;48.60;24.10;;;4.70;99.90;;;;;;6178141;28;20484;-62
2020/12/12 02:19:58;;;;;;;61.27;25.30;;;4.80;99.90;;;;;;6175998;28;20807;-65
2020/12/12 02:23:02;;;;;;;51.17;25.60;;;4.80;99.90;;;;;;6193323;28;20504;-63
2020/12/12 02:26:04;;;;;;;52.03;25.53;;;4.70;99.90;;;;;;6218376;28;20475;-64
2020/12/12 02:29:10;;;;;;;51.47;23.77;;;4.70;99.90;;;;;;6223849;28;20472;-64
2020/12/12 02:32:12;;;;;;;46.67;25.50;;;4.70;99.90;;;;;;6223803;28;20468;-64
2020/12/12 02:35:14;;;;;;;47.27;25.00;;;4.80;99.90;;;;;;6224583;28;20561;-64
2020/12/12 02:38:17;;;;;;;47.13;23.93;;;4.80;99.90;;;;;;6225645;28;20476;-64
2020/12/12 02:41:20;;;;;;;43.20;23.77;;;4.80;99.90;;;;;;6224971;28;20480;-63
2020/12/12 02:44:22;;;;;;;47.17;23.70;;;4.80;99.90;;;;;;6225605;28;20472;-63
2020/12/12 02:47:25;;;;;;;42.60;21.50;;;4.70;99.90;;;;;;6217360;28;20475;-64
2020/12/12 02:50:27;;;;;;;49.23;26.10;;;4.70;99.90;;;;;;6225541;28;20953;-64
2020/12/12 02:53:30;;;;;;;41.80;21.03;;;4.80;99.90;;;;;;6225710;28;20963;-63
2020/12/12 02:56:33;;;;;;;41.87;21.60;;;4.70;99.90;;;;;;6225596;28;20473;-64
2020/12/12 02:59:36;;;;;;;39.10;22.67;;;4.80;99.90;;;;;;6225378;28;20798;-63
2020/12/12 03:02:38;;;;;;;38.97;21.70;;;4.80;99.90;;;;;;6225287;28;20472;-64
2020/12/12 03:05:42;;;;;;;40.83;23.70;;;4.70;99.90;;;;;;6225312;28;20467;-65
2020/12/12 03:08:46;;;;;;;38.40;21.83;;;4.80;99.90;;;;;;6217401;28;20491;-64
2020/12/12 03:11:48;;;;;;;36.97;19.53;;;4.80;99.90;;;;;;6213807;28;20476;-64
2020/12/12 03:14:51;;;;;;;32.17;20.13;;;4.70;99.90;;;;;;6214168;28;20471;-64
2020/12/12 03:17:53;;;;;;;30.63;20.03;;;4.80;99.90;;;;;;6211551;28;20498;-64
2020/12/12 03:20:55;;;;;;;35.23;22.30;;;4.80;99.90;;;;;;6213451;28;20477;-64
2020/12/12 03:23:58;;;;;;;34.53;20.83;;;4.70;99.90;;;;;;6211854;28;20484;-63
2020/12/12 03:27:00;;;;;;;39.83;24.40;;;4.80;99.90;;;;;;6211128;28;20473;-63
2020/12/12 03:30:03;;;;;;;32.93;18.90;;;4.90;99.90;;;;;;6204578;28;20788;-62
2020/12/12 03:33:06;;;;;;;34.60;20.00;;;5.00;99.90;;;;;;6200773;28;20957;-63
2020/12/12 03:36:08;;;;;;;37.80;21.83;;;4.90;99.90;;;;;;6200603;28;21045;-64
2020/12/12 03:39:11;;;;;;;39.77;21.70;;;4.90;99.90;;;;;;6200617;28;20449;-64
2020/12/12 03:42:13;;;;;;;38.20;21.10;;;5.00;99.90;;;;;;6200757;28;20489;-65
2020/12/12 03:45:16;;;;;;;32.60;19.83;;;5.00;99.90;;;;;;6200795;28;20456;-64
2020/12/12 03:48:18;;;;;;;38.27;23.30;;;5.00;99.90;;;;;;6195832;28;20464;-63
2020/12/12 03:51:20;;;;;;;38.23;20.50;;;5.00;99.90;;;;;;6200608;28;20469;-63
2020/12/12 03:54:23;;;;;;;35.70;21.10;;;5.10;99.90;;;;;;6200670;28;20448;-63
2020/12/12 03:57:25;;;;;;;34.50;20.87;;;5.10;99.90;;;;;;6202974;28;20472;-64
2020/12/12 04:00:27;;;;;;;33.70;19.17;;;5.20;99.90;;;;;;6205440;28;20514;-64
2020/12/12 04:03:29;;;;;;;34.70;22.53;;;5.20;99.90;;;;;;6205149;28;20468;-65
2020/12/12 04:06:32;;;;;;;34.50;20.10;;;5.20;99.90;;;;;;6205229;28;20465;-65
2020/12/12 04:09:36;;;;;;;37.70;21.10;;;5.30;99.90;;;;;;6205241;28;21069;-64
2020/12/12 04:12:38;;;;;;;33.87;20.23;;;5.20;99.90;;;;;;6204706;28;20476;-65
2020/12/12 04:15:40;;;;;;;39.30;20.60;;;5.20;99.90;;;;;;6204736;28;20476;-64
2020/12/12 04:18:42;;;;;;;38.00;21.30;;;5.30;99.90;;;;;;6204661;28;20479;-65
2020/12/12 04:21:45;;;;;;;38.07;20.90;;;5.30;99.90;;;;;;6204651;28;20499;-64
2020/12/12 04:24:48;;;;;;;37.73;22.53;;;5.20;99.90;;;;;;6204918;28;20542;-64
2020/12/12 04:27:51;;;;;;;31.40;20.07;;;5.20;99.90;;;;;;6204752;28;20483;-64
2020/12/12 04:30:53;;;;;;;33.77;19.67;;;5.30;99.90;;;;;;6204596;28;20476;-63
2020/12/12 04:33:55;;;;;;;33.67;20.47;;;5.30;99.90;;;;;;6204573;28;20469;-64
2020/12/12 04:36:57;;;;;;;35.73;21.93;;;5.20;99.90;;;;;;6204661;28;20483;-64
2020/12/12 04:40:00;;;;;;;37.43;21.30;;;5.20;99.90;;;;;;6204489;28;20492;-65
2020/12/12 04:43:03;;;;;;;34.90;19.37;;;5.20;99.90;;;;;;6204453;28;20477;-64
2020/12/12 04:46:06;;;;;;;30.33;18.83;;;5.20;99.90;;;;;;6204318;28;20476;-65
2020/12/12 04:49:09;;;;;;;38.83;21.13;;;5.20;99.90;;;;;;6204314;28;20469;-64
2020/12/12 04:52:13;;;;;;;37.83;23.00;;;5.20;99.90;;;;;;6204667;28;20476;-64
2020/12/12 04:55:17;;;;;;;39.93;22.47;;;5.20;99.90;;;;;;6204133;28;20469;-64
2020/12/12 04:58:21;;;;;;;37.87;22.50;;;5.20;99.90;;;;;;6204242;28;20475;-64
2020/12/12 05:01:24;;;;;;;35.67;20.57;;;5.20;99.90;;;;;;6203629;28;20488;-65
2020/12/12 05:04:29;;;;;;;38.17;20.77;;;5.20;99.90;;;;;;6203810;28;20483;-64
2020/12/12 05:07:31;;;;;;;35.30;21.33;;;5.20;99.90;;;;;;6203369;28;20484;-64
2020/12/12 05:10:39;;;;;;;38.00;21.77;;;5.20;99.90;;;;;;6203533;28;20819;-64
2020/12/12 05:13:41;;;;;;;41.63;22.60;;;5.20;99.90;;;;;;6203276;28;20484;-64
2020/12/12 05:16:45;;;;;;;35.00;19.90;;;5.20;99.90;;;;;;6203741;28;20480;-64
2020/12/12 05:19:49;;;;;;;29.07;18.43;;;5.20;99.90;;;;;;6203167;28;20810;-63
2020/12/12 05:22:51;;;;;;;36.07;20.03;;;5.20;99.90;;;;;;6203211;28;20487;-64
2020/12/12 05:25:55;;;;;;;38.37;20.13;;;5.20;99.90;;;;;;6203534;28;20477;-64
2020/12/12 05:29:00;;;;;;;40.90;21.20;;;5.20;99.90;;;;;;6203359;28;20488;-63
2020/12/12 05:32:03;;;;;;;38.63;20.10;;;5.30;99.90;;;;;;6203229;28;20480;-65
2020/12/12 05:35:06;;;;;;;36.47;21.43;;;5.20;99.90;;;;;;6202838;28;20489;-64
2020/12/12 05:38:09;;;;;;;38.87;21.40;;;5.20;99.90;;;;;;6202968;28;20915;-63
2020/12/12 05:41:12;;;;;;;33.20;19.23;;;5.20;99.90;;;;;;6202782;28;20956;-63
2020/12/12 05:44:17;;;;;;;31.80;18.30;;;5.20;99.90;;;;;;6202884;28;20476;-64
2020/12/12 05:47:19;;;;;;;34.27;20.90;;;5.20;99.90;;;;;;6202718;28;20481;-64
2020/12/12 05:50:24;;;;;;;35.67;19.80;;;5.20;99.90;;;;;;6202482;28;20476;-64
2020/12/12 05:53:26;;;;;;;36.20;18.60;;;5.20;99.90;;;;;;6202673;28;20555;-65
2020/12/12 05:56:31;;;;;;;33.47;18.97;;;5.20;99.90;;;;;;6203323;28;20492;-64
2020/12/12 05:59:34;;;;;;;30.93;19.10;;;5.20;99.90;;;;;;6193538;28;20481;-64
2020/12/12 06:02:37;;;;;;;35.13;20.67;;;5.20;99.90;;;;;;6202108;28;20819;-63
2020/12/12 06:05:46;;;;;;;35.43;20.53;;;5.20;99.90;;;;;;6202197;28;20509;-64
2020/12/12 06:09:13;;;;;;;34.70;18.60;;;5.20;99.90;;;;;;6202371;28;20557;-64
2020/12/12 06:12:17;;;;;;;31.50;19.07;;;5.20;99.90;;;;;;6201586;28;20483;-64
2020/12/12 06:15:31;;;;;;;31.47;18.93;;;5.20;99.90;;;;;;6201675;28;20457;-65
2020/12/12 06:18:45;;;;;;;33.63;18.60;;;5.20;99.90;;;;;;6201776;28;20472;-64
2020/12/12 06:21:49;;;;;;;29.67;18.57;;;5.20;99.90;;;;;;6201530;28;20934;-65
2020/12/12 06:24:59;;;;;;;30.20;19.77;;;5.20;99.90;;;;;;6201816;28;20547;-61
2020/12/12 06:28:04;;;;;;;26.80;16.33;;;5.20;99.90;;;;;;6202123;28;20469;-64
2020/12/12 06:31:07;;;;;;;29.60;19.20;;;5.20;99.90;;;;;;6201463;28;20465;-64
2020/12/12 06:34:09;;;;;;;30.47;18.07;;;5.30;99.90;;;;;;6201389;28;20478;-64
2020/12/12 06:37:32;;;;;;;33.20;20.40;;;5.30;99.90;;;;;;6202166;28;20469;-64
2020/12/12 06:40:40;;;;;;;34.03;22.23;;;5.40;99.90;;;;;;6201685;28;20485;-64
2020/12/12 06:43:55;;;;;;;34.83;21.17;;;5.30;99.90;;;;;;6202100;28;20473;-64
2020/12/12 06:46:57;;;;;;;50.17;31.00;;;5.30;99.90;;;;;;6201648;28;20477;-64
2020/12/12 06:50:06;;;;;;;39.93;24.10;;;5.30;99.90;;;;;;6201248;28;20570;-64
2020/12/12 06:53:18;;;;;;;32.63;21.30;;;5.30;99.90;;;;;;6201466;28;20488;-63
2020/12/12 06:56:20;;;;;;;33.20;19.40;;;5.30;99.90;;;;;;6201334;28;20976;-63
2020/12/12 06:59:27;;;;;;;35.13;19.40;;;5.30;99.90;;;;;;6201153;28;20631;-64
2020/12/12 07:02:30;;;;;;;30.40;19.30;;;5.30;99.90;;;;;;6196960;28;20944;-63
2020/12/12 07:05:34;;;;;;;32.53;18.60;;;5.30;99.90;;;;;;6200835;28;20564;-64
2020/12/12 07:08:36;;;;;;;32.83;18.83;;;5.30;99.90;;;;;;6201406;28;20484;-64
2020/12/12 07:11:38;;;;;;;29.67;18.43;;;5.40;99.90;;;;;;6200725;28;20511;-64
2020/12/12 07:14:41;;;;;;;25.43;17.30;;;5.40;99.90;;;;;;6200774;28;20473;-65
2020/12/12 07:17:44;;;;;;;28.70;18.00;;;5.50;99.90;;;;;;6200805;28;20484;-64
2020/12/12 07:20:48;;;;;;;27.40;18.27;;;5.50;99.90;;;;;;6200627;28;20484;-64
2020/12/12 07:23:50;;;;;;;30.77;18.20;;;5.50;99.90;;;;;;6200777;28;20484;-64
2020/12/12 07:26:53;;;;;;;24.20;18.20;;;5.50;99.90;;;;;;6201105;28;20476;-64
2020/12/12 07:29:56;;;;;;;28.07;19.20;;;5.60;99.90;;;;;;6200937;28;20478;-63
2020/12/12 07:32:58;;;;;;;28.10;18.43;;;5.60;99.90;;;;;;6205642;28;20464;-63
2020/12/12 07:36:01;;;;;;;30.37;18.97;;;5.60;99.90;;;;;;6205295;28;20472;-63
2020/12/12 07:39:07;;;;;;;29.23;20.00;;;5.60;99.90;;;;;;6205447;28;20469;-63
2020/12/12 07:42:11;;;;;;;29.80;18.60;;;5.60;99.90;;;;;;6205280;28;20485;-63
2020/12/12 07:45:32;;;;;;;30.77;19.07;;;5.60;99.90;;;;;;6205355;28;20787;-61
2020/12/12 07:48:34;;;;;;;28.97;18.90;;;5.70;99.90;;;;;;6205394;28;20476;-62
2020/12/12 07:51:37;;;;;;;28.20;19.63;;;5.70;99.90;;;;;;6205940;28;20491;-61
2020/12/12 07:54:43;;;;;;;26.10;17.43;;;5.80;99.90;;;;;;6205697;28;20476;-61
2020/12/12 07:57:50;;;;;;;25.60;18.77;;;5.80;99.90;;;;;;6205530;28;20471;-62
2020/12/12 08:01:00;;;;;;;28.20;17.43;;;5.80;99.90;;;;;;6205469;28;20488;-61
2020/12/12 08:04:02;;;;;;;29.03;17.57;;;5.90;99.90;;;;;;6200448;28;20571;-61
2020/12/12 08:07:12;;;;;;;27.83;17.47;;;5.90;99.90;;;;;;6204979;28;20479;-61
2020/12/12 08:10:14;;;;;;;25.77;16.73;;;5.90;99.90;;;;;;6205124;28;20492;-61
2020/12/12 08:13:22;;;;;;;24.70;18.03;;;5.90;99.90;;;;;;6204716;28;20483;-60
2020/12/12 08:16:30;;;;;;;26.40;17.03;;;5.90;99.90;;;;;;6204711;28;20798;-61
2020/12/12 08:19:32;;;;;;;22.20;16.10;;;5.80;99.90;;;;;;6204765;28;20480;-62
2020/12/12 08:22:37;;;;;;;26.80;18.90;;;5.90;99.90;;;;;;6204639;28;20979;-61
2020/12/12 08:25:39;;;;;;;26.23;16.47;;;5.90;99.90;;;;;;6205056;28;20480;-61
2020/12/12 08:28:42;;;;;;;26.47;16.67;;;5.90;99.90;;;;;;6204694;28;20818;-62
2020/12/12 08:31:44;;;;;;;26.70;16.47;;;5.80;99.90;;;;;;6204176;28;20511;-61
2020/12/12 08:34:47;;;;;;;31.83;19.03;;;5.80;99.90;;;;;;6204250;28;20473;-57
2020/12/12 08:37:55;;;;;;;25.20;18.30;;;5.80;99.90;;;;;;6204124;28;20477;-61
2020/12/12 08:40:58;;;;;;;27.10;16.87;;;5.80;99.90;;;;;;6203659;28;20485;-61
2020/12/12 08:44:00;;;;;;;22.97;17.20;;;5.70;99.90;;;;;;6203676;28;20491;-64
2020/12/12 08:47:03;;;;;;;24.53;17.17;;;5.80;99.90;;;;;;6204260;28;20472;-62
2020/12/12 08:50:05;;;;;;;26.53;16.70;;;5.70;99.90;;;;;;6198267;28;20477;-62
2020/12/12 08:53:27;;;;;;;29.20;17.43;;;5.80;99.90;;;;;;6186914;28;20488;-63
2020/12/12 08:56:30;;;;;;;27.90;17.00;;;5.90;99.90;;;;;;6213123;28;20473;-59
2020/12/12 08:59:33;;;;;;;28.47;17.70;;;5.90;99.90;;;;;;6205463;28;20477;-64
2020/12/12 09:02:36;;;;;;;27.10;17.93;;;5.90;99.90;;;;;;6207484;28;20476;-63
2020/12/12 09:05:38;;;;;;;26.03;17.50;;;5.90;99.90;;;;;;6215556;28;20477;-63
2020/12/12 09:08:40;;;;;;;28.40;17.73;;;5.90;99.90;;;;;;6203488;28;20502;-59
2020/12/12 09:11:44;;;;;;;29.17;18.00;;;5.90;99.90;;;;;;6209124;28;20464;-59
2020/12/12 09:14:47;;;;;;;32.10;21.20;;;5.90;99.90;;;;;;6208224;28;20488;-68
2020/12/12 09:18:00;;;;;;;28.83;19.30;;;5.90;99.90;;;;;;6208187;28;20476;-64
2020/12/12 09:21:03;;;;;;;34.13;19.67;;;5.90;99.90;;;;;;6222108;28;20499;-64
2020/12/12 09:24:07;;;;;;;28.60;18.30;;;5.90;99.90;;;;;;6216148;28;20461;-62
2020/12/12 09:27:12;;;;;;;27.37;18.30;;;6.00;99.90;;;;;;6206346;28;20765;-64
2020/12/12 09:30:14;;;;;;;29.73;16.80;;;6.00;99.90;;;;;;6198807;28;20556;-61
2020/12/12 09:33:18;;;;;;;26.47;17.27;;;6.00;99.90;;;;;;6197098;28;20437;-62
2020/12/12 09:36:20;;;;;;;26.90;17.63;;;5.90;99.90;;;;;;6202044;28;20460;-62
2020/12/12 09:39:22;;;;;;;30.13;18.97;;;5.90;99.90;;;;;;6205155;28;20898;-61
2020/12/12 09:42:26;;;;;;;28.47;17.37;;;6.00;99.90;;;;;;6202627;28;20937;-61
2020/12/12 09:45:28;;;;;;;26.47;18.27;;;6.00;99.90;;;;;;6202637;28;20468;-60
2020/12/12 09:48:31;;;;;;;27.70;17.87;;;6.10;99.90;;;;;;6202617;28;20968;-61
2020/12/12 09:51:33;;;;;;;30.10;18.73;;;6.10;99.90;;;;;;6202673;28;20473;-61
2020/12/12 09:54:35;;;;;;;28.27;17.70;;;6.10;99.90;;;;;;6202957;28;20476;-61
2020/12/12 09:57:37;;;;;;;27.93;18.57;;;6.20;99.90;;;;;;6202462;28;20479;-61
2020/12/12 10:00:41;;;;;;;27.63;16.90;;;6.20;99.90;;;;;;6202706;28;20472;-57
2020/12/12 10:03:45;;;;;;;29.60;18.93;;;6.30;99.90;;;;;;6201679;28;20485;-62
2020/12/12 10:06:47;;;;;;;25.03;17.60;;;6.30;99.90;;;;;;6202398;28;20473;-63
2020/12/12 10:09:49;;;;;;;24.47;17.00;;;6.30;99.90;;;;;;6202074;28;20477;-63
2020/12/12 10:12:52;;;;;;;25.80;17.20;;;6.20;99.90;;;;;;6197506;28;20476;-61
2020/12/12 10:15:54;;;;;;;21.27;15.63;;;6.30;99.90;;;;;;6201783;28;20980;-65
2020/12/12 10:18:57;;;;;;;23.03;16.07;;;6.10;99.90;;;;;;6201968;28;20488;-63
2020/12/12 10:21:59;;;;;;;24.20;17.20;;;6.20;99.90;;;;;;6201802;28;20477;-60
2020/12/12 10:25:02;;;;;;;25.33;17.23;;;6.10;99.90;;;;;;6201895;28;20549;-65
2020/12/12 10:28:06;;;;;;;20.77;15.90;;;6.10;99.90;;;;;;6201629;28;20961;-62
2020/12/12 10:31:09;;;;;;;26.97;17.10;;;6.20;99.90;;;;;;6201151;28;20492;-61
2020/12/12 10:34:12;;;;;;;24.63;17.23;;;6.20;99.90;;;;;;6201498;28;20473;-64
2020/12/12 10:37:15;;;;;;;26.10;15.93;;;6.10;99.90;;;;;;6201523;28;20473;-66
2020/12/12 10:40:19;;;;;;;24.30;17.40;;;6.10;99.90;;;;;;6201297;28;20480;-65
2020/12/12 10:43:21;;;;;;;23.03;14.97;;;6.10;99.90;;;;;;6201455;28;20795;-66
2020/12/12 10:46:23;;;;;;;19.80;13.80;;;6.20;99.90;;;;;;6201369;28;20473;-67
2020/12/12 10:49:29;;;;;;;22.93;17.40;;;6.20;99.90;;;;;;6201225;28;20477;-60
2020/12/12 10:52:31;;;;;;;24.70;16.50;;;6.30;99.90;;;;;;6201516;28;20465;-67
2020/12/12 10:55:34;;;;;;;21.27;15.50;;;6.40;99.90;;;;;;6208346;28;20469;-60
2020/12/12 10:58:36;;;;;;;25.80;16.90;;;6.40;99.90;;;;;;6205363;28;20974;-59
2020/12/12 11:01:39;;;;;;;22.57;15.07;;;6.40;99.90;;;;;;6201193;28;20476;-59
2020/12/12 11:04:43;;;;;;;23.80;15.97;;;6.40;99.90;;;;;;6200858;28;20479;-59
2020/12/12 11:07:45;;;;;;;22.20;17.23;;;6.50;99.90;;;;;;6198510;28;20488;-57
2020/12/12 11:10:48;;;;;;;21.93;16.70;;;6.60;99.90;;;;;;6198526;28;20513;-59
2020/12/12 11:13:50;;;;;;;23.90;16.63;;;6.70;99.90;;;;;;6208661;28;20999;-60
2020/12/12 11:16:56;;;;;;;25.23;17.20;;;6.70;99.90;;;;;;6204598;28;20472;-59
2020/12/12 11:19:59;;;;;;;24.13;17.83;;;6.80;99.90;;;;;;6209973;28;20488;-62
2020/12/12 11:23:02;;;;;;;26.80;17.83;;;6.80;99.90;;;;;;6209922;28;20480;-62
2020/12/12 11:26:04;;;;;;;31.50;23.47;;;6.70;99.90;;;;;;6207376;28;20504;-60
2020/12/12 11:29:06;;;;;;;30.03;21.03;;;6.70;99.90;;;;;;6212052;28;20476;-61
2020/12/12 11:32:09;;;;;;;24.50;19.57;;;6.80;99.90;;;;;;6213001;28;20477;-61
2020/12/12 11:35:15;;;;;;;26.80;16.93;;;6.90;99.90;;;;;;6210689;28;21938;-60
2020/12/12 11:38:24;;;;;;;24.60;18.40;;;6.90;99.90;;;;;;6211728;28;20495;-59
2020/12/12 11:41:45;;;;;;;25.27;19.00;;;6.90;99.90;;;;;;6212122;28;20474;-59
2020/12/12 11:45:05;;;;;;;29.23;17.77;;;6.80;99.90;;;;;;6205770;28;21095;-64
2020/12/12 11:48:07;;;;;;;19.93;16.13;;;6.70;99.90;;;;;;6208963;28;20449;-64
2020/12/12 11:51:10;;;;;;;21.47;15.50;;;6.70;99.90;;;;;;6212546;28;20459;-62
2020/12/12 11:54:13;;;;;;;23.03;17.10;;;6.80;99.90;;;;;;6211950;28;20429;-64
2020/12/12 11:57:15;;;;;;;22.87;16.40;;;6.70;99.90;;;;;;6212067;28;20456;-65
2020/12/12 12:00:18;;;;;;;22.83;16.13;;;6.60;99.90;;;;;;6211543;28;20471;-64
2020/12/12 12:03:20;;;;;;;20.87;15.57;;;6.60;99.90;;;;;;6212314;28;20769;-62
2020/12/12 12:06:24;;;;;;;17.83;13.00;;;6.60;99.90;;;;;;6217608;28;20881;-59
2020/12/12 12:09:33;;;;;;;22.87;15.50;;;6.60;99.90;;;;;;6209367;28;20461;-66
2020/12/12 12:12:35;;;;;;;17.33;13.47;;;6.60;99.90;;;;;;6212968;28;20480;-61
2020/12/12 12:15:38;;;;;;;22.37;14.13;;;6.60;99.90;;;;;;6215866;28;20464;-62
2020/12/12 12:18:40;;;;;;;19.37;13.20;;;6.60;99.90;;;;;;6213060;28;20971;-67
2020/12/12 12:21:47;;;;;;;17.00;13.43;;;6.60;99.90;;;;;;6212307;28;20500;-68
2020/12/12 12:24:52;;;;;;;20.87;14.03;;;6.50;99.90;;;;;;6216563;28;20869;-67
2020/12/12 12:27:54;;;;;;;20.57;14.87;;;6.50;99.90;;;;;;6216271;28;20983;-66
2020/12/12 12:30:56;;;;;;;21.13;15.47;;;6.60;99.90;;;;;;6213508;28;20467;-65
2020/12/12 12:34:00;;;;;;;18.93;13.90;;;6.60;99.90;;;;;;6211972;28;20818;-62
2020/12/12 12:37:03;;;;;;;17.00;13.27;;;6.70;99.90;;;;;;6204585;28;20555;-61
2020/12/12 12:40:05;;;;;;;20.60;14.70;;;6.50;99.90;;;;;;6204289;28;20491;-62
2020/12/12 12:43:07;;;;;;;24.73;13.60;;;6.50;99.90;;;;;;6204175;28;20476;-63
2020/12/12 12:46:09;;;;;;;20.87;15.93;;;6.50;99.90;;;;;;6204163;28;20476;-61
2020/12/12 12:49:12;;;;;;;26.33;16.47;;;6.50;99.90;;;;;;6203857;28;20588;-60
2020/12/12 12:52:15;;;;;;;25.67;16.07;;;6.50;99.90;;;;;;6210783;28;20804;-60
2020/12/12 12:55:17;;;;;;;25.40;16.30;;;6.60;99.90;;;;;;6215308;28;20475;-59
2020/12/12 12:58:22;;;;;;;23.53;17.37;;;6.60;99.90;;;;;;6215783;28;20987;-60
2020/12/12 13:01:25;;;;;;;24.17;16.10;;;6.50;99.90;;;;;;6212821;28;20986;-60
2020/12/12 13:04:27;;;;;;;20.53;15.67;;;6.60;99.90;;;;;;6226321;28;20491;-59
2020/12/12 13:07:30;;;;;;;22.77;15.70;;;6.60;99.90;;;;;;6227874;28;20483;-60
2020/12/12 13:10:33;;;;;;;22.23;17.47;;;6.70;99.90;;;;;;6226630;28;20594;-60
2020/12/12 13:13:35;;;;;;;21.60;16.60;;;6.70;99.90;;;;;;6226779;28;20482;-60
2020/12/12 13:16:37;;;;;;;22.57;15.00;;;6.70;99.90;;;;;;6227553;28;20514;-60
2020/12/12 13:19:45;;;;;;;22.40;15.20;;;6.70;99.90;;;;;;6227523;28;20476;-60
2020/12/12 13:22:48;;;;;;;20.83;14.17;;;6.70;99.90;;;;;;6227819;28;20507;-60
2020/12/12 13:25:51;;;;;;;17.20;13.20;;;6.70;99.90;;;;;;6218949;28;20480;-60
2020/12/12 13:32:13;;;;;;;20.37;15.80;;;6.60;99.90;;;;;;6202169;28;20477;-61
2020/12/12 13:35:16;;;;;;;18.87;14.00;;;6.60;99.90;;;;;;6202841;28;20508;-61
2020/12/12 13:38:19;;;;;;;19.27;14.40;;;6.60;99.90;;;;;;6202997;28;20484;-61
2020/12/12 13:41:23;;;;;;;24.50;17.17;;;6.70;99.90;;;;;;6202734;28;20488;-62
2020/12/12 13:44:26;;;;;;;22.93;16.33;;;6.70;99.90;;;;;;6202792;28;20469;-61
2020/12/12 13:47:28;;;;;;;22.43;14.73;;;6.60;99.90;;;;;;6202879;28;20473;-60
2020/12/12 13:50:31;;;;;;;21.83;17.60;;;6.60;99.90;;;;;;6202353;28;21015;-60
2020/12/12 13:53:34;;;;;;;24.47;17.53;;;6.60;99.90;;;;;;6202431;28;20969;-61
2020/12/12 13:56:36;;;;;;;18.63;16.23;;;6.60;99.90;;;;;;6202460;28;20965;-60
2020/12/12 13:59:38;;;;;;;26.60;18.40;;;6.50;99.90;;;;;;6202188;28;20472;-60
2020/12/12 14:02:40;;;;;;;25.10;16.30;;;6.50;99.90;;;;;;6202032;28;20492;-61
2020/12/12 14:05:47;;;;;;;27.63;18.60;;;6.40;99.90;;;;;;6201907;28;20519;-60
2020/12/12 14:09:09;;;;;;;25.00;18.63;;;6.50;99.90;;;;;;6202305;28;20488;-60
2020/12/12 14:26:20;;;;;;;24.87;18.97;;;6.40;99.90;;;;;;6162758;28;20465;-59
2020/12/12 14:29:14;;;;;;;23.80;17.40;;;6.20;99.90;;;;;;6192096;28;20470;-61
2020/12/12 14:32:16;;;;;;;29.10;20.33;;;6.20;99.90;;;;;;6201654;28;20824;-60
2020/12/12 14:35:20;;;;;;;26.10;18.73;;;6.20;99.90;;;;;;6201365;28;20473;-60
2020/12/12 14:38:25;;;;;;;31.83;21.13;;;6.10;99.90;;;;;;6201381;28;20472;-59
2020/12/12 14:41:28;;;;;;;27.40;20.40;;;6.00;99.90;;;;;;6200530;28;20473;-60
2020/12/12 14:44:31;;;;;;;30.60;20.63;;;6.00;99.90;;;;;;6201279;28;20977;-60
2020/12/12 14:47:33;;;;;;;23.13;19.17;;;5.90;99.90;;;;;;6201125;28;20556;-60
2020/12/12 14:50:36;;;;;;;26.07;19.07;;;6.00;99.90;;;;;;6201264;28;20481;-61
2020/12/12 14:53:38;;;;;;;28.60;20.17;;;6.00;99.90;;;;;;6201125;28;20969;-59
2020/12/12 14:56:42;;;;;;;25.70;18.30;;;5.90;99.90;;;;;;6201066;28;20995;-61
2020/12/12 14:59:44;;;;;;;27.00;18.90;;;5.90;99.90;;;;;;6200809;28;20493;-60
2020/12/12 15:02:48;;;;;;;23.53;17.80;;;5.80;99.90;;;;;;6201157;28;20477;-61
2020/12/12 15:05:53;;;;;;;24.63;19.50;;;5.90;99.90;;;;;;6200907;28;20552;-60
2020/12/12 15:08:55;;;;;;;21.40;18.00;;;5.90;99.90;;;;;;6201231;28;20480;-60
2020/12/12 15:11:58;;;;;;;26.80;18.67;;;5.90;99.90;;;;;;6200420;28;20818;-61
2020/12/12 15:15:04;;;;;;;28.53;19.53;;;5.90;99.90;;;;;;6200841;28;20477;-61
2020/12/12 15:18:26;;;;;;;26.27;19.93;;;5.90;99.90;;;;;;6201589;28;20446;-59
2020/12/12 15:21:28;;;;;;;24.97;18.67;;;5.90;99.90;;;;;;6201186;28;20527;-60
2020/12/12 15:24:31;;;;;;;26.77;19.27;;;5.90;99.90;;;;;;6201297;28;20600;-60
2020/12/12 15:27:34;;;;;;;27.03;18.33;;;5.80;99.90;;;;;;6200293;28;20473;-63
2020/12/12 15:30:39;;;;;;;26.43;20.13;;;5.80;99.90;;;;;;6196148;28;20519;-59
2020/12/12 15:33:41;;;;;;;26.17;18.70;;;5.80;99.90;;;;;;6198781;28;20600;-63
2020/12/12 15:36:44;;;;;;;28.63;20.00;;;5.70;99.90;;;;;;6199647;28;20465;-59
2020/12/12 15:39:46;;;;;;;26.63;19.63;;;5.70;99.90;;;;;;6210057;28;20472;-62
2020/12/12 15:42:49;;;;;;;27.50;21.30;;;5.80;99.90;;;;;;6200746;28;20464;-61
2020/12/12 15:45:51;;;;;;;24.43;19.50;;;5.80;99.90;;;;;;6200683;28;20565;-61
2020/12/12 15:48:55;;;;;;;32.33;21.13;;;5.80;99.90;;;;;;6200490;28;20477;-63
2020/12/12 15:51:57;;;;;;;29.57;20.43;;;5.60;99.90;;;;;;6201762;28;20499;-64
2020/12/12 15:55:00;;;;;;;30.63;19.87;;;5.70;99.90;;;;;;6205425;28;20473;-59
2020/12/12 15:58:03;;;;;;;27.50;19.90;;;5.70;99.90;;;;;;6204809;28;20477;-60
2020/12/12 16:01:06;;;;;;;25.87;20.20;;;5.70;99.90;;;;;;6204621;28;20805;-60